createdAt,value
2022-09-27T00:01:01.255Z,3.05
2022-09-27T00:03:28.991Z,4.57
2022-09-27T00:06:13.373Z,1.13
2022-09-27T00:08:40.830Z,1.65
2022-09-27T00:11:13.876Z,1.20
2022-09-27T00:13:46.495Z,0.55
2022-09-27T00:16:13.452Z,0.80
2022-09-27T00:18:40.168Z,0.60
2022-09-27T00:21:09.301Z,0.60
2022-09-27T00:23:36.874Z,0.60
2022-09-27T00:26:05.172Z,0.63
2022-09-27T00:28:32.203Z,0.77
2022-09-27T00:30:59.736Z,0.50
2022-09-27T00:33:27.267Z,0.50
2022-09-27T00:35:53.950Z,0.70
2022-09-27T00:38:20.628Z,0.47
2022-09-27T00:40:48.372Z,0.60
2022-09-27T00:43:21.628Z,0.38
2022-09-27T00:45:55.691Z,0.68
2022-09-27T00:48:27.913Z,0.50
2022-09-27T00:50:59.822Z,0.40
2022-09-27T00:53:31.441Z,0.30
2022-09-27T00:56:03.106Z,0.38
2022-09-27T00:58:35.822Z,0.40
2022-09-27T01:01:06.274Z,0.90
2022-09-27T01:03:40.629Z,0.40
2022-09-27T01:06:09.350Z,0.47
2022-09-27T01:08:36.108Z,0.30
2022-09-27T01:11:13.450Z,0.50
2022-09-27T01:14:05.239Z,0.30
2022-09-27T01:16:47.963Z,0.40
2022-09-27T01:19:34.461Z,0.50
2022-09-27T01:22:12.016Z,0.40
2022-09-27T01:25:12.129Z,0.50
2022-09-27T01:28:22.258Z,0.38
2022-09-27T01:30:56.184Z,0.52
2022-09-27T01:33:31.939Z,0.70
2022-09-27T01:36:15.933Z,0.40
2022-09-27T01:38:43.097Z,0.50
2022-09-27T01:41:26.086Z,0.60
2022-09-27T01:44:09.140Z,0.40
2022-09-27T01:46:45.442Z,0.60
2022-09-27T01:49:27.465Z,0.40
2022-09-27T01:51:59.950Z,0.50
2022-09-27T01:54:35.101Z,0.52
2022-09-27T01:57:25.226Z,0.50
2022-09-27T02:00:02.120Z,0.50
2022-09-27T02:02:55.716Z,0.40
2022-09-27T02:05:32.206Z,0.47
2022-09-27T02:08:16.504Z,0.40
2022-09-27T02:10:47.682Z,0.60
2022-09-27T02:13:56.115Z,0.40
2022-09-27T02:17:13.407Z,0.60
2022-09-27T02:19:55.273Z,0.75
2022-09-27T02:22:37.481Z,0.65
2022-09-27T02:25:30.920Z,0.60
2022-09-27T02:28:02.205Z,0.40
2022-09-27T02:30:33.868Z,3.05
2022-09-27T02:33:13.703Z,0.50
2022-09-27T02:35:40.646Z,0.40
2022-09-27T02:38:08.282Z,0.40
2022-09-27T02:40:42.246Z,0.38
2022-09-27T02:43:09.069Z,0.50
2022-09-27T02:46:14.621Z,0.40
2022-09-27T02:49:20.516Z,0.38
2022-09-27T02:52:10.601Z,0.43
2022-09-27T02:55:00.149Z,8.35
2022-09-27T02:58:26.190Z,4.28
2022-09-27T03:04:23.850Z,1.73
2022-09-27T03:06:53.424Z,0.80
2022-09-27T03:09:22.909Z,1.23
2022-09-27T03:11:49.868Z,0.60
2022-09-27T03:14:17.200Z,1.77
2022-09-27T03:16:55.840Z,0.60
2022-09-27T03:19:42.463Z,0.60
2022-09-27T03:22:27.748Z,0.40
2022-09-27T03:24:54.435Z,0.52
2022-09-27T03:27:21.088Z,0.50
2022-09-27T03:29:47.766Z,0.40
2022-09-27T03:32:14.383Z,0.30
2022-09-27T03:34:59.771Z,0.50
2022-09-27T03:37:29.346Z,0.50
2022-09-27T03:39:56.025Z,0.40
2022-09-27T03:42:22.804Z,0.30
2022-09-27T03:44:51.519Z,0.30
2022-09-27T03:47:18.268Z,0.30
2022-09-27T03:49:45.059Z,0.30
2022-09-27T03:52:11.670Z,0.40
2022-09-27T03:54:38.551Z,0.22
2022-09-27T03:57:05.523Z,0.20
2022-09-27T03:59:33.163Z,0.20
2022-09-27T04:02:22.635Z,0.30
2022-09-27T04:05:08.060Z,0.40
2022-09-27T04:07:35.264Z,0.30
2022-09-27T04:10:02.214Z,0.35
2022-09-27T04:12:30.227Z,0.30
2022-09-27T04:14:56.906Z,0.40
2022-09-27T04:20:36.227Z,0.50
2022-09-27T04:23:12.172Z,0.50
2022-09-27T04:25:43.442Z,0.50
2022-09-27T04:28:38.958Z,0.57
2022-09-27T04:31:06.295Z,0.60
2022-09-27T04:33:52.177Z,0.60
2022-09-27T04:36:29.432Z,0.77
2022-09-27T04:39:12.485Z,0.77
2022-09-27T04:41:45.079Z,1.10
2022-09-27T04:44:12.248Z,0.80
2022-09-27T04:46:42.505Z,0.65
2022-09-27T04:49:10.705Z,0.70
2022-09-27T04:51:37.459Z,0.70
2022-09-27T04:54:04.911Z,0.82
2022-09-27T04:56:40.341Z,0.70
2022-09-27T04:59:10.809Z,0.70
2022-09-27T05:01:40.253Z,0.97
2022-09-27T05:04:25.342Z,0.80
2022-09-27T05:06:57.164Z,0.82
2022-09-27T05:09:32.119Z,0.88
2022-09-27T05:11:59.808Z,0.80
2022-09-27T05:14:49.190Z,1.40
2022-09-27T05:17:16.318Z,1.17
2022-09-27T05:19:43.164Z,1.00
2022-09-27T05:22:13.001Z,0.90
2022-09-27T05:24:40.301Z,1.25
2022-09-27T05:27:09.983Z,1.30
2022-09-27T05:29:36.720Z,0.90
2022-09-27T05:32:14.637Z,0.82
2022-09-27T05:34:42.747Z,1.35
2022-09-27T05:37:09.999Z,1.00
2022-09-27T05:39:39.385Z,1.20
2022-09-27T05:42:08.441Z,1.13
2022-09-27T05:44:35.467Z,1.10
2022-09-27T05:47:04.519Z,0.95
2022-09-27T05:49:33.087Z,1.00
2022-09-27T05:52:01.695Z,1.20
2022-09-27T05:54:30.004Z,0.80
2022-09-27T05:56:59.237Z,0.90
2022-09-27T05:59:43.515Z,1.02
2022-09-27T06:02:22.270Z,0.70
2022-09-27T06:05:04.467Z,0.70
2022-09-27T06:08:11.257Z,0.90
2022-09-27T06:10:43.286Z,0.90
2022-09-27T06:13:13.105Z,0.47
2022-09-27T06:15:43.841Z,0.77
2022-09-27T06:18:18.835Z,0.50
2022-09-27T06:20:48.495Z,0.70
2022-09-27T06:23:22.605Z,0.70
2022-09-27T06:25:51.901Z,0.60
2022-09-27T06:28:37.618Z,0.60
2022-09-27T06:31:08.242Z,0.60
2022-09-27T06:33:49.072Z,0.70
2022-09-27T06:38:46.833Z,0.70
2022-09-27T06:41:30.858Z,0.75
2022-09-27T06:44:20.598Z,1.10
2022-09-27T06:47:05.654Z,0.88
2022-09-27T06:49:51.009Z,0.80
2022-09-27T06:52:18.844Z,0.65
2022-09-27T06:54:45.671Z,0.60
2022-09-27T06:57:32.262Z,0.68
2022-09-27T07:00:17.318Z,0.70
2022-09-27T07:03:02.616Z,0.60
2022-09-27T07:05:38.523Z,0.50
2022-09-27T07:08:15.897Z,0.50
2022-09-27T07:10:42.559Z,0.68
2022-09-27T07:13:11.265Z,0.65
2022-09-27T07:15:41.898Z,0.70
2022-09-27T07:18:12.736Z,0.70
2022-09-27T07:20:39.888Z,0.40
2022-09-27T07:23:07.828Z,0.30
2022-09-27T07:25:35.416Z,0.85
2022-09-27T07:28:08.237Z,0.65
2022-09-27T07:30:36.925Z,0.40
2022-09-27T07:33:05.874Z,0.70
2022-09-27T07:35:32.916Z,0.50
2022-09-27T07:37:59.788Z,0.70
2022-09-27T07:40:28.811Z,0.55
2022-09-27T07:42:56.831Z,0.80
2022-09-27T07:45:25.240Z,0.80
2022-09-27T07:48:24.165Z,0.70
2022-09-27T07:51:10.930Z,0.50
2022-09-27T07:53:50.198Z,0.60
2022-09-27T07:56:49.105Z,0.70
2022-09-27T07:59:19.012Z,0.52
2022-09-27T08:01:46.509Z,0.45
2022-09-27T08:04:13.316Z,0.30
2022-09-27T08:06:42.150Z,0.40
2022-09-27T08:09:09.946Z,0.40
2022-09-27T08:11:38.746Z,0.30
2022-09-27T08:14:06.740Z,0.30
2022-09-27T08:16:34.737Z,0.45
2022-09-27T08:19:33.078Z,0.25
2022-09-27T08:22:26.909Z,0.30
2022-09-27T08:24:56.594Z,0.40
2022-09-27T08:27:38.520Z,0.40
2022-09-27T08:30:18.263Z,0.30
2022-09-27T08:32:45.222Z,0.40
2022-09-27T08:35:15.417Z,0.32
2022-09-27T08:37:42.122Z,0.38
2022-09-27T08:40:11.349Z,0.20
2022-09-27T08:42:50.185Z,0.50
2022-09-27T08:45:24.793Z,0.70
2022-09-27T08:48:00.220Z,0.47
2022-09-27T08:50:40.225Z,0.70
2022-09-27T08:53:26.439Z,0.55
2022-09-27T08:55:56.940Z,0.65
2022-09-27T08:58:51.951Z,0.50
2022-09-27T09:01:28.846Z,0.50
2022-09-27T09:04:10.371Z,0.68
2022-09-27T09:06:49.801Z,0.90
2022-09-27T09:09:50.021Z,0.80
2022-09-27T09:12:47.679Z,0.75
2022-09-27T09:15:58.992Z,0.80
2022-09-27T09:19:06.213Z,0.50
2022-09-27T09:22:13.510Z,0.65
2022-09-27T09:24:47.286Z,0.80
2022-09-27T09:27:22.843Z,0.90
2022-09-27T09:30:18.548Z,0.60
2022-09-27T09:33:02.233Z,0.90
2022-09-27T09:35:43.251Z,0.80
2022-09-27T09:38:16.097Z,0.57
2022-09-27T09:41:07.404Z,0.38
2022-09-27T09:43:45.347Z,0.40
2022-09-27T09:46:20.339Z,0.52
2022-09-27T09:49:29.447Z,0.40
2022-09-27T09:52:06.524Z,0.30
2022-09-27T09:54:43.272Z,0.40
2022-09-27T09:57:16.869Z,0.40
2022-09-27T09:59:49.779Z,0.30
2022-09-27T10:02:38.384Z,0.55
2022-09-27T10:05:22.512Z,0.50
2022-09-27T10:08:00.091Z,0.20
2022-09-27T10:10:27.302Z,0.30
2022-09-27T10:13:03.065Z,0.90
2022-09-27T10:15:34.081Z,0.30
2022-09-27T10:18:00.917Z,0.47
2022-09-27T10:20:35.402Z,0.63
2022-09-27T10:23:14.380Z,0.60
2022-09-27T10:26:04.478Z,0.40
2022-09-27T10:28:47.525Z,0.60
2022-09-27T10:31:20.576Z,0.68
2022-09-27T10:34:33.692Z,0.20
2022-09-27T10:37:05.039Z,0.40
2022-09-27T10:39:33.247Z,0.50
2022-09-27T10:42:00.073Z,0.40
2022-09-27T10:44:36.443Z,0.30
2022-09-27T10:47:23.876Z,0.40
2022-09-27T10:50:06.729Z,0.30
2022-09-27T10:53:05.980Z,0.60
2022-09-27T10:55:35.817Z,0.40
2022-09-27T10:58:04.292Z,0.50
2022-09-27T11:00:37.315Z,0.40
2022-09-27T11:03:12.695Z,0.55
2022-09-27T11:05:39.895Z,0.50
2022-09-27T11:08:19.013Z,0.50
2022-09-27T11:11:04.365Z,0.50
2022-09-27T11:13:33.675Z,0.57
2022-09-27T11:16:28.905Z,0.60
2022-09-27T11:19:24.864Z,0.70
2022-09-27T11:22:01.366Z,0.43
2022-09-27T11:24:54.815Z,0.50
2022-09-27T11:28:06.070Z,0.47
2022-09-27T11:31:28.226Z,0.47
2022-09-27T11:34:14.838Z,0.60
2022-09-27T11:36:54.599Z,0.70
2022-09-27T11:39:46.033Z,0.70
2022-09-27T11:42:57.615Z,0.70
2022-09-27T11:46:16.539Z,0.65
2022-09-27T11:49:27.411Z,0.60
2022-09-27T11:52:23.340Z,0.73
2022-09-27T11:54:56.248Z,0.82
2022-09-27T11:57:31.971Z,0.73
2022-09-27T12:00:06.301Z,0.82
2022-09-27T12:03:20.655Z,0.60
2022-09-27T12:05:57.788Z,0.55
2022-09-27T12:09:02.781Z,0.68
2022-09-27T12:11:52.412Z,0.70
2022-09-27T12:14:28.505Z,0.50
2022-09-27T12:16:57.773Z,0.52
2022-09-27T12:19:36.423Z,0.65
2022-09-27T12:22:12.822Z,0.70
2022-09-27T12:24:43.962Z,0.60
2022-09-27T12:27:40.175Z,0.50
2022-09-27T12:30:13.861Z,0.90
2022-09-27T12:33:08.806Z,0.57
2022-09-27T12:35:45.070Z,0.50
2022-09-27T12:38:19.935Z,0.60
2022-09-27T12:40:52.812Z,0.60
2022-09-27T12:43:34.915Z,0.80
2022-09-27T12:46:49.803Z,0.40
2022-09-27T12:49:32.435Z,0.82
2022-09-27T12:52:09.291Z,0.60
2022-09-27T12:55:11.134Z,1.25
2022-09-27T12:58:19.552Z,0.70
2022-09-27T13:00:52.938Z,0.80
2022-09-27T13:03:32.481Z,0.40
2022-09-27T13:06:08.027Z,0.60
2022-09-27T13:08:58.570Z,0.73
2022-09-27T13:12:14.420Z,0.50
2022-09-27T13:15:00.519Z,0.80
2022-09-27T13:17:44.071Z,0.50
2022-09-27T13:20:36.103Z,0.40
2022-09-27T13:23:19.009Z,0.52
2022-09-27T13:25:55.795Z,0.70
2022-09-27T13:28:50.343Z,0.63
2022-09-27T13:31:54.243Z,0.50
2022-09-27T13:34:52.530Z,0.68
2022-09-27T13:37:50.841Z,0.40
2022-09-27T13:40:35.935Z,0.50
2022-09-27T13:43:42.022Z,9.52
2022-09-27T13:46:26.331Z,0.80
2022-09-27T13:49:17.301Z,0.75
2022-09-27T13:52:15.244Z,0.50
2022-09-27T13:54:54.133Z,0.70
2022-09-27T13:57:45.804Z,0.75
2022-09-27T14:00:25.455Z,0.75
2022-09-27T14:03:15.569Z,1.08
2022-09-27T14:05:50.589Z,1.00
2022-09-27T14:08:33.455Z,1.00
2022-09-27T14:11:03.379Z,0.50
2022-09-27T14:13:33.391Z,0.55
2022-09-27T14:16:07.426Z,0.40
2022-09-27T14:18:46.171Z,0.68
2022-09-27T14:21:21.597Z,0.60
2022-09-27T14:24:43.845Z,0.60
2022-09-27T14:27:29.635Z,0.60
2022-09-27T14:30:22.722Z,0.50
2022-09-27T14:33:00.742Z,0.80
2022-09-27T14:36:08.346Z,0.63
2022-09-27T14:38:38.736Z,0.40
2022-09-27T14:41:16.137Z,0.50
2022-09-27T14:43:46.457Z,0.52
2022-09-27T14:46:28.393Z,1.02
2022-09-27T14:48:55.997Z,0.55
2022-09-27T14:51:33.183Z,0.50
2022-09-27T14:54:05.641Z,0.50
2022-09-27T14:56:37.516Z,0.50
2022-09-27T14:59:09.096Z,0.50
2022-09-27T15:01:38.161Z,0.40
2022-09-27T15:04:07.131Z,0.50
2022-09-27T15:06:37.287Z,0.50
2022-09-27T15:09:05.415Z,0.50
2022-09-27T15:11:34.836Z,0.60
2022-09-27T15:14:03.878Z,0.73
2022-09-27T15:16:31.411Z,0.50
2022-09-27T15:19:23.053Z,0.40
2022-09-27T15:21:49.837Z,0.50
2022-09-27T15:24:35.513Z,0.40
2022-09-27T15:27:02.543Z,0.60
2022-09-27T15:29:29.310Z,0.43
2022-09-27T15:32:08.147Z,0.32
2022-09-27T15:34:35.805Z,0.60
2022-09-27T15:37:05.136Z,0.40
2022-09-27T15:39:39.751Z,0.40
2022-09-27T15:42:17.411Z,0.50
2022-09-27T15:44:50.243Z,0.63
2022-09-27T15:47:32.323Z,0.90
2022-09-27T15:49:59.575Z,0.43
2022-09-27T15:52:50.794Z,0.32
2022-09-27T15:55:28.466Z,0.40
2022-09-27T15:58:20.387Z,0.55
2022-09-27T16:00:58.294Z,0.70
2022-09-27T16:03:26.272Z,0.52
2022-09-27T16:05:56.288Z,0.40
2022-09-27T16:08:24.082Z,0.77
2022-09-27T16:10:56.196Z,0.65
2022-09-27T16:13:26.009Z,0.85
2022-09-27T16:15:55.830Z,0.43
2022-09-27T16:18:23.219Z,0.60
2022-09-27T16:20:51.750Z,0.57
2022-09-27T16:23:18.315Z,0.40
2022-09-27T16:25:44.931Z,0.50
2022-09-27T16:28:11.618Z,0.50
2022-09-27T16:30:38.267Z,0.57
2022-09-27T16:33:05.160Z,0.50
2022-09-27T16:35:31.806Z,0.85
2022-09-27T16:37:58.598Z,0.40
2022-09-27T16:40:26.727Z,0.60
2022-09-27T16:42:53.375Z,0.60
2022-09-27T16:45:20.059Z,0.80
2022-09-27T16:47:47.404Z,0.50
2022-09-27T16:50:33.166Z,0.50
2022-09-27T16:53:00.332Z,0.45
2022-09-27T16:55:28.729Z,0.60
2022-09-27T16:57:58.906Z,0.70
2022-09-27T17:00:25.898Z,0.50
2022-09-27T17:02:53.080Z,0.40
2022-09-27T17:05:20.860Z,0.60
2022-09-27T17:07:51.036Z,0.88
2022-09-27T17:10:19.253Z,0.70
2022-09-27T17:12:47.333Z,0.50
2022-09-27T17:15:14.828Z,0.98
2022-09-27T17:17:41.531Z,0.55
2022-09-27T17:20:08.470Z,0.55
2022-09-27T17:22:35.166Z,0.70
2022-09-27T17:25:01.797Z,0.65
2022-09-27T17:27:28.778Z,0.60
2022-09-27T17:29:55.955Z,0.80
2022-09-27T17:32:24.686Z,0.60
2022-09-27T17:34:52.255Z,0.60
2022-09-27T17:37:19.332Z,0.77
2022-09-27T17:39:46.008Z,0.65
2022-09-27T17:42:12.753Z,0.60
2022-09-27T17:44:39.666Z,0.60
2022-09-27T17:47:25.041Z,0.52
2022-09-27T17:50:10.364Z,0.52
2022-09-27T17:52:37.509Z,0.68
2022-09-27T17:55:04.585Z,0.52
2022-09-27T17:57:31.867Z,0.57
2022-09-27T17:59:58.541Z,0.50
2022-09-27T18:02:26.176Z,0.70
2022-09-27T18:04:52.933Z,0.63
2022-09-27T18:07:19.994Z,0.60
2022-09-27T18:09:46.897Z,0.50
2022-09-27T18:12:13.764Z,0.50
2022-09-27T18:14:40.635Z,0.80
2022-09-27T18:17:07.262Z,0.40
2022-09-27T18:19:33.861Z,0.45
2022-09-27T18:22:00.871Z,0.50
2022-09-27T18:24:27.668Z,0.65
2022-09-27T18:26:55.834Z,0.50
2022-09-27T18:29:22.960Z,0.52
2022-09-27T18:31:49.663Z,0.50
2022-09-27T18:34:18.453Z,0.50
2022-09-27T18:36:45.574Z,0.45
2022-09-27T18:39:16.951Z,0.60
2022-09-27T18:41:43.645Z,0.60
2022-09-27T18:44:13.393Z,0.50
2022-09-27T18:46:40.661Z,0.38
2022-09-27T18:49:10.719Z,0.40
2022-09-27T18:51:41.965Z,0.40
2022-09-27T18:54:16.896Z,0.90
2022-09-27T18:56:43.816Z,0.50
2022-09-27T18:59:10.658Z,0.60
2022-09-27T19:01:40.116Z,0.68
2022-09-27T19:04:11.544Z,0.70
2022-09-27T19:06:39.286Z,0.55
2022-09-27T19:09:06.988Z,0.60
2022-09-27T19:11:34.243Z,0.50
2022-09-27T19:14:01.380Z,0.50
2022-09-27T19:16:29.258Z,0.60
2022-09-27T19:18:56.298Z,0.45
2022-09-27T19:21:25.446Z,0.70
2022-09-27T19:23:52.814Z,0.57
2022-09-27T19:26:21.574Z,0.88
2022-09-27T19:28:49.052Z,0.82
2022-09-27T19:31:18.693Z,0.75
2022-09-27T19:33:45.392Z,0.40
2022-09-27T19:36:13.938Z,0.50
2022-09-27T19:38:40.723Z,0.50
2022-09-27T19:41:10.391Z,0.40
2022-09-27T19:43:37.270Z,0.40
2022-09-27T19:46:06.783Z,0.50
2022-09-27T19:48:36.123Z,0.40
2022-09-27T19:51:02.995Z,0.43
2022-09-27T19:53:32.457Z,0.32
2022-09-27T19:56:00.751Z,0.40
2022-09-27T19:58:29.115Z,0.40
2022-09-27T20:01:06.739Z,0.40
2022-09-27T20:03:34.287Z,0.45
2022-09-27T20:06:01.888Z,0.35
2022-09-27T20:08:30.070Z,0.30
2022-09-27T20:11:03.769Z,0.50
2022-09-27T20:13:34.356Z,0.50
2022-09-27T20:16:13.351Z,0.50
2022-09-27T20:18:46.012Z,0.47
2022-09-27T20:23:40.572Z,0.50
2022-09-27T20:26:13.283Z,0.40
2022-09-27T20:28:42.150Z,0.43
2022-09-27T20:31:13.264Z,0.40
2022-09-27T20:33:44.118Z,0.52
2022-09-27T20:36:12.576Z,0.50
2022-09-27T20:38:43.314Z,0.50
2022-09-27T20:41:11.706Z,0.40
2022-09-27T20:43:39.286Z,0.57
2022-09-27T20:46:10.081Z,0.40
2022-09-27T20:48:38.454Z,0.60
2022-09-27T20:51:05.734Z,0.50
2022-09-27T20:53:33.980Z,0.50
2022-09-27T20:56:03.064Z,0.50
2022-09-27T20:58:31.754Z,0.50
2022-09-27T21:01:06.391Z,0.52
2022-09-27T21:03:33.792Z,0.43
2022-09-27T21:06:00.790Z,0.70
2022-09-27T21:08:33.266Z,0.40
2022-09-27T21:11:11.678Z,1.25
2022-09-27T21:13:39.624Z,0.80
2022-09-27T21:16:14.236Z,1.77
2022-09-27T21:18:41.903Z,7.30
2022-09-27T21:21:13.286Z,7.18
2022-09-27T21:23:44.831Z,8.65
2022-09-27T21:26:20.675Z,8.57
2022-09-27T21:28:52.539Z,13.55
2022-09-27T21:31:34.739Z,10.70
2022-09-27T21:34:03.899Z,7.65
2022-09-27T21:36:34.493Z,3.45
2022-09-27T21:39:02.729Z,1.50
2022-09-27T21:41:29.505Z,0.98
2022-09-27T21:43:56.490Z,0.60
2022-09-27T21:46:26.149Z,0.65
2022-09-27T21:48:58.046Z,0.60
2022-09-27T21:51:33.156Z,0.90
2022-09-27T21:54:02.008Z,0.60
2022-09-27T21:56:31.722Z,0.70
2022-09-27T21:58:58.839Z,0.50
2022-09-27T22:01:34.825Z,0.40
2022-09-27T22:04:03.950Z,0.43
2022-09-27T22:06:33.202Z,0.47
2022-09-27T22:09:03.511Z,0.50
2022-09-27T22:11:32.851Z,0.50
2022-09-27T22:14:00.574Z,0.50
2022-09-27T22:16:28.969Z,0.50
2022-09-27T22:18:56.838Z,0.50
2022-09-27T22:21:29.785Z,0.50
2022-09-27T22:24:07.410Z,0.50
2022-09-27T22:26:37.873Z,0.50
2022-09-27T22:29:05.366Z,0.43
2022-09-27T22:31:32.699Z,0.40
2022-09-27T22:34:01.659Z,0.40
2022-09-27T22:36:28.780Z,0.60
2022-09-27T22:38:56.165Z,0.50
2022-09-27T22:41:23.793Z,0.40
2022-09-27T22:43:54.014Z,0.40
2022-09-27T22:46:22.061Z,0.40
2022-09-27T22:48:52.704Z,0.52
2022-09-27T22:51:19.490Z,0.55
2022-09-27T22:53:46.167Z,0.50
2022-09-27T22:56:16.095Z,0.45
2022-09-27T22:58:44.153Z,0.50
2022-09-27T23:01:16.250Z,0.50
2022-09-27T23:03:44.021Z,0.45
2022-09-27T23:06:11.134Z,0.47
2022-09-27T23:08:39.423Z,0.60
2022-09-27T23:11:09.996Z,0.50
2022-09-27T23:13:39.331Z,1.02
2022-09-27T23:16:08.996Z,0.90
2022-09-27T23:18:37.482Z,0.80
2022-09-27T23:21:09.854Z,0.82
2022-09-27T23:26:07.695Z,0.70
2022-09-27T23:28:35.279Z,0.50
2022-09-27T23:31:22.121Z,0.60
2022-09-27T23:33:50.434Z,0.60
2022-09-27T23:36:20.171Z,0.52
2022-09-27T23:38:48.493Z,0.60
2022-09-27T23:41:16.978Z,0.63
2022-09-27T23:43:44.521Z,0.60
2022-09-27T23:46:12.344Z,0.40
2022-09-27T23:48:39.138Z,0.55
2022-09-27T23:51:07.777Z,0.70
2022-09-27T23:53:34.866Z,0.65
2022-09-27T23:56:13.461Z,0.60
2022-09-27T23:58:42.870Z,0.60
